This is the latest recevied weather packets stored in our database for station/object TG9ADI-20. If no packets are shown the sender has not sent any weather packets the latest 10 day(s).
| Time | Temp. | Humidity | Pressure | Rain* | Wind** | Luminosity | Snow |
|---|---|---|---|---|---|---|---|
| 1778303885 | 20° C | 97% | 1013 hPa | 0 mm | - | - | - |
| 1778303284 | 20° C | 93% | 1013 hPa | 0 mm | - | - | - |
| 1778302683 | 17.78° C | 97% | 1013 hPa | 0 mm | - | - | - |
| 1778302083 | 17.78° C | 97% | 1013 hPa | 0 mm | - | - | - |
| 1778301482 | 18.89° C | 97% | 1013 hPa | 0 mm | - | - | - |
| 1778300882 | 20° C | 93% | 1013 hPa | 0 mm | - | - | - |
| 1778300281 | 18.33° C | 98% | 1012 hPa | 0 mm | - | - | - |
| 1778299679 | 18.33° C | 98% | 1012 hPa | 0 mm | - | - | - |
| 1778299079 | 20° C | 97% | 1013 hPa | 0 mm | - | - | - |
| 1778298478 | 17.78° C | 98% | 1013 hPa | 0 mm | - | - | - |
| 1778297878 | 18.33° C | 98% | 1013 hPa | 0 mm | - | - | - |
| 1778297277 | 18.33° C | 98% | 1013 hPa | 0 mm | - | - | - |
| 1778296677 | 19.44° C | 96% | 1013 hPa | 0 mm | - | - | - |
| 1778296076 | 19.44° C | 96% | 1013 hPa | 0 mm | - | - | - |
| 1778295475 | 20° C | 96% | 1013 hPa | 0 mm | - | - | - |
| 1778294875 | 20° C | 97% | 1012 hPa | 0 mm | - | - | - |
| 1778294274 | 19.44° C | 96% | 1012 hPa | 0 mm | - | - | - |
| 1778293674 | 19.44° C | 96% | 1012 hPa | 0 mm | - | - | - |
| 1778293073 | 19.44° C | 96% | 1012 hPa | 0 mm | - | - | - |
| 1778292473 | 20° C | 97% | 1012 hPa | 0 mm | - | - | - |
| 1778291872 | 18.89° C | 96% | 1012 hPa | 0 mm | - | - | - |
| 1778291271 | 19.44° C | 96% | 1012 hPa | 0 mm | - | - | - |
| 1778290671 | 20.56° C | 93% | 1012 hPa | 0 mm | - | - | - |
| 1778290070 | 18.89° C | 97% | 1011 hPa | 0 mm | - | - | - |
| 1778289470 | 19.44° C | 97% | 1011 hPa | 0 mm | - | - | - |
* Rain latest hour (hover to see other rain measurements)
** Current wind speed in m/s (hover to see current wind gust speed)